Řízení letového provozu České republiky
Letiste: LKPR Aktualizace: 31.05.2016 03:53:52  UTC
 SPECI LKPR 31.05. 03:53 ...
SPECI LKPR 310353Z 26007KT 9999 -SHRA FEW008 FEW040CB 14/13 Q1008 RMK REG QNH 1006=
 METAR LKPR 31.05. 03:30 ...
METAR LKPR 310330Z 23007KT 6000 SHRA FEW045CB 14/13 Q1009 BECMG 25020KT 4000 TSRA BKN030CB RMK REG QNH 1006=
 TAF LKPR 30.05. 23:00 ...
TAF LKPR 302300Z 3100/0106 24006KT 9999 SCT040      TEMPO 3100/0106 33016KT 9999 -SHRA BKN023TCU      PROB30 TEMPO 3100/0106 35020KT 3000 TSRA BKN015CB=